createdAt,value
2018-05-08T00:01:53.457Z,15.10
2018-05-08T00:04:20.940Z,15.00
2018-05-08T00:06:48.364Z,15.00
2018-05-08T00:09:15.801Z,14.90
2018-05-08T00:11:43.216Z,14.90
2018-05-08T00:14:10.645Z,14.90
2018-05-08T00:16:38.102Z,14.80
2018-05-08T00:19:05.560Z,14.80
2018-05-08T00:21:32.992Z,14.80
2018-05-08T00:24:00.418Z,14.70
2018-05-08T00:26:28.604Z,14.70
2018-05-08T00:28:56.040Z,14.60
2018-05-08T00:31:24.228Z,14.60
2018-05-08T00:33:51.670Z,14.60
2018-05-08T00:36:19.859Z,14.60
2018-05-08T00:38:47.357Z,14.50
2018-05-08T00:41:14.816Z,14.50
2018-05-08T00:43:42.252Z,14.50
2018-05-08T00:46:09.672Z,14.50
2018-05-08T00:48:37.992Z,14.50
2018-05-08T00:51:05.457Z,14.40
2018-05-08T00:53:32.908Z,14.40
2018-05-08T00:56:00.332Z,14.40
2018-05-08T00:58:27.820Z,14.40
2018-05-08T01:00:55.274Z,14.40
2018-05-08T01:03:22.705Z,14.40
2018-05-08T01:05:50.137Z,14.30
2018-05-08T01:08:18.348Z,14.30
2018-05-08T01:10:45.823Z,14.30
2018-05-08T01:13:13.255Z,14.30
2018-05-08T01:15:40.725Z,14.30
2018-05-08T01:18:08.185Z,14.30
2018-05-08T01:20:35.673Z,14.30
2018-05-08T01:23:03.096Z,14.20
2018-05-08T01:25:30.521Z,14.20
2018-05-08T01:27:57.948Z,14.20
2018-05-08T01:30:26.185Z,14.20
2018-05-08T01:32:53.621Z,14.20
2018-05-08T01:35:21.055Z,14.20
2018-05-08T01:37:48.553Z,14.10
2018-05-08T01:40:15.985Z,14.10
2018-05-08T01:42:43.408Z,14.10
2018-05-08T01:45:11.633Z,14.10
2018-05-08T01:47:39.088Z,14.00
2018-05-08T01:50:06.528Z,14.00
2018-05-08T01:52:33.997Z,14.10
2018-05-08T01:55:01.458Z,14.10
2018-05-08T01:57:28.880Z,14.10
2018-05-08T01:59:57.180Z,14.10
2018-05-08T02:02:24.645Z,14.10
2018-05-08T02:04:52.092Z,14.10
2018-05-08T02:07:19.521Z,14.10
2018-05-08T02:09:46.953Z,14.10
2018-05-08T02:12:15.169Z,14.00
2018-05-08T02:14:42.637Z,14.00
2018-05-08T02:17:10.064Z,14.00
2018-05-08T02:19:38.472Z,14.00
2018-05-08T02:22:05.904Z,14.00
2018-05-08T02:24:33.386Z,14.00
2018-05-08T02:27:00.809Z,14.00
2018-05-08T02:29:28.240Z,13.90
2018-05-08T02:31:56.427Z,13.90
2018-05-08T02:34:23.916Z,13.90
2018-05-08T02:36:51.376Z,13.90
2018-05-08T02:39:18.802Z,13.80
2018-05-08T02:41:46.225Z,13.80
2018-05-08T02:44:14.461Z,13.80
2018-05-08T02:46:41.920Z,13.80
2018-05-08T02:49:09.356Z,13.80
2018-05-08T02:51:36.821Z,13.80
2018-05-08T02:54:04.285Z,13.80
2018-05-08T02:56:31.740Z,13.80
2018-05-08T02:58:59.175Z,13.80
2018-05-08T03:01:26.593Z,13.80
2018-05-08T03:03:54.824Z,13.80
2018-05-08T03:06:22.243Z,13.80
2018-05-08T03:08:49.697Z,13.90
2018-05-08T03:11:17.124Z,13.90
2018-05-08T03:13:44.649Z,13.80
2018-05-08T03:16:12.100Z,13.90
2018-05-08T03:18:39.529Z,13.80
2018-05-08T03:21:07.026Z,13.80
2018-05-08T03:23:34.471Z,13.80
2018-05-08T03:26:01.930Z,13.80
2018-05-08T03:28:29.352Z,13.80
2018-05-08T03:30:56.836Z,13.70
2018-05-08T03:33:24.276Z,13.70
2018-05-08T03:35:51.749Z,13.70
2018-05-08T03:38:19.205Z,13.70
2018-05-08T03:40:46.660Z,13.60
2018-05-08T03:43:14.094Z,13.60
2018-05-08T03:45:41.520Z,13.60
2018-05-08T03:48:09.736Z,13.50
2018-05-08T03:50:37.174Z,13.50
2018-05-08T03:53:04.652Z,13.50
2018-05-08T03:55:32.085Z,13.40
2018-05-08T03:57:59.572Z,13.40
2018-05-08T04:00:39.832Z,13.40
2018-05-08T04:03:19.228Z,13.40
2018-05-08T04:05:55.600Z,13.40
2018-05-08T04:08:37.820Z,13.40
2018-05-08T04:11:05.252Z,13.40
2018-05-08T04:13:32.689Z,13.40
2018-05-08T04:16:00.884Z,13.50
2018-05-08T04:18:28.335Z,13.50
2018-05-08T04:20:57.406Z,13.60
2018-05-08T04:23:24.813Z,13.50
2018-05-08T04:25:52.272Z,13.60
2018-05-08T04:28:19.709Z,13.60
2018-05-08T04:30:47.133Z,13.70
2018-05-08T04:33:15.338Z,13.80
2018-05-08T04:35:42.813Z,13.80
2018-05-08T04:38:10.248Z,13.80
2018-05-08T04:40:37.679Z,13.90
2018-05-08T04:43:05.892Z,14.10
2018-05-08T04:45:33.353Z,14.00
2018-05-08T04:48:00.805Z,14.20
2018-05-08T04:50:28.240Z,14.30
2018-05-08T04:52:55.717Z,14.70
2018-05-08T04:55:23.140Z,15.50
2018-05-08T04:57:50.632Z,16.40
2018-05-08T05:00:18.085Z,17.30
2018-05-08T05:02:45.611Z,18.10
2018-05-08T05:05:12.969Z,18.90
2018-05-08T05:07:40.455Z,19.70
2018-05-08T05:10:08.207Z,20.40
2018-05-08T05:12:35.634Z,21.00
2018-05-08T05:15:03.081Z,21.50
2018-05-08T05:17:31.301Z,22.50
2018-05-08T05:19:58.728Z,22.50
2018-05-08T05:22:26.520Z,23.00
2018-05-08T05:24:53.957Z,23.40
2018-05-08T05:27:21.490Z,23.80
2018-05-08T05:29:48.888Z,24.30
2018-05-08T18:49:20.252Z,23.90
2018-05-08T18:51:47.665Z,23.90
2018-05-08T18:54:15.859Z,23.90
2018-05-08T18:56:43.281Z,23.90
2018-05-08T18:59:10.809Z,24.00
2018-05-08T19:01:38.233Z,24.00
2018-05-08T19:04:05.657Z,23.90
2018-05-08T19:06:33.909Z,23.80
2018-05-08T19:09:01.333Z,23.80
2018-05-08T19:11:34.501Z,23.80
2018-05-08T19:14:01.916Z,23.70
2018-05-08T19:16:30.157Z,23.50
2018-05-08T19:19:03.357Z,23.50
2018-05-08T19:21:30.791Z,23.40
2018-05-08T19:24:03.828Z,23.40
2018-05-08T19:26:31.378Z,23.30
2018-05-08T19:29:04.537Z,23.20
2018-05-08T19:31:31.992Z,23.10
2018-05-08T19:33:59.428Z,23.00
2018-05-08T19:36:32.657Z,23.00
2018-05-08T19:39:00.160Z,22.90
2018-05-08T19:41:27.528Z,22.80
2018-05-08T19:43:54.957Z,22.80
2018-05-08T19:46:23.180Z,22.70
2018-05-08T19:48:50.608Z,22.60
2018-05-08T19:51:18.195Z,22.60
2018-05-08T19:53:45.628Z,22.50
2018-05-08T19:56:13.120Z,22.50
2018-05-08T19:58:40.555Z,22.40
2018-05-08T20:01:07.979Z,22.30
2018-05-08T20:03:36.185Z,22.20
2018-05-08T20:06:03.646Z,22.20
2018-05-08T20:08:31.101Z,22.10
2018-05-08T20:10:59.394Z,22.10
2018-05-08T20:13:26.833Z,22.00
2018-05-08T20:15:54.253Z,22.00
2018-05-08T20:18:21.696Z,21.90
2018-05-08T20:20:50.064Z,21.80
2018-05-08T20:23:18.164Z,21.80
2018-05-08T20:25:45.616Z,21.70
2018-05-08T20:28:13.112Z,21.70
2018-05-08T20:30:40.654Z,21.60
2018-05-08T20:33:08.121Z,21.60
2018-05-08T20:35:35.572Z,21.50
2018-05-08T20:38:03.005Z,21.50
2018-05-08T20:40:30.429Z,21.40
2018-05-08T20:42:58.657Z,21.30
2018-05-08T20:45:26.117Z,21.20
2018-05-08T20:47:53.555Z,21.20
2018-05-08T20:50:20.978Z,21.10
2018-05-08T20:52:49.204Z,21.00
2018-05-08T20:55:16.626Z,21.00
2018-05-08T20:57:44.061Z,21.00
2018-05-08T21:00:12.280Z,20.90
2018-05-08T21:02:39.715Z,20.90
2018-05-08T21:05:07.136Z,20.80
2018-05-08T21:07:35.327Z,20.70
2018-05-08T21:10:03.523Z,20.70
2018-05-08T21:12:30.989Z,20.70
2018-05-08T21:14:58.472Z,20.70
2018-05-08T21:17:25.892Z,20.60
2018-05-08T21:19:53.317Z,20.60
2018-05-08T21:22:21.521Z,20.50
2018-05-08T21:24:48.988Z,20.40
2018-05-08T21:27:16.425Z,20.40
2018-05-08T21:29:49.433Z,20.40
2018-05-08T21:32:16.857Z,20.30
2018-05-08T21:34:44.291Z,20.20
2018-05-08T21:37:12.519Z,20.10
2018-05-08T21:39:40.044Z,20.10
2018-05-08T21:42:07.429Z,20.10
2018-05-08T21:44:34.871Z,20.00
2018-05-08T21:47:02.312Z,19.90
2018-05-08T21:49:30.498Z,19.80
2018-05-08T21:51:57.964Z,19.80
2018-05-08T21:54:25.423Z,19.80
2018-05-08T21:56:52.845Z,19.70
2018-05-08T21:59:20.606Z,19.60
2018-05-08T22:01:48.032Z,19.60
2018-05-08T22:04:15.466Z,19.50
2018-05-08T22:06:42.908Z,19.40
2018-05-08T22:09:10.348Z,19.40
2018-05-08T22:11:37.777Z,19.30
2018-05-08T22:14:05.275Z,19.30
2018-05-08T22:16:32.698Z,19.20
2018-05-08T22:19:00.124Z,19.20
2018-05-08T22:21:28.356Z,19.10
2018-05-08T22:23:55.820Z,19.00
2018-05-08T22:26:23.268Z,19.00
2018-05-08T22:28:50.712Z,19.00
2018-05-08T22:31:18.141Z,18.90
2018-05-08T22:33:45.643Z,18.90
2018-05-08T22:36:13.092Z,18.80
2018-05-08T22:38:40.548Z,18.70
2018-05-08T22:41:07.974Z,18.70
2018-05-08T22:43:35.442Z,18.60
2018-05-08T22:46:02.917Z,18.60
2018-05-08T22:48:30.357Z,18.50
2018-05-08T22:50:57.779Z,18.50
2018-05-08T22:53:25.989Z,18.40
2018-05-08T22:55:53.427Z,18.40
2018-05-08T22:58:20.925Z,18.30
2018-05-08T23:00:48.368Z,18.30
2018-05-08T23:03:15.825Z,18.20
2018-05-08T23:05:43.261Z,18.20
2018-05-08T23:08:10.684Z,18.10
2018-05-08T23:10:38.883Z,18.00
2018-05-08T23:13:06.309Z,18.00
2018-05-08T23:15:34.508Z,17.90
2018-05-08T23:18:01.986Z,17.90
2018-05-08T23:20:30.137Z,17.80
2018-05-08T23:22:57.621Z,17.80
2018-05-08T23:25:25.068Z,17.80
2018-05-08T23:27:52.497Z,17.70
2018-05-08T23:30:19.936Z,17.70
2018-05-08T23:32:48.152Z,17.60
2018-05-08T23:35:15.585Z,17.60
2018-05-08T23:37:43.013Z,17.50
2018-05-08T23:40:11.250Z,17.40
2018-05-08T23:42:38.673Z,17.40
2018-05-08T23:45:06.152Z,17.40
2018-05-08T23:47:33.604Z,17.40
2018-05-08T23:50:01.033Z,17.30
2018-05-08T23:52:28.536Z,17.30
2018-05-08T23:54:55.972Z,17.20
2018-05-08T23:57:23.432Z,17.20
2018-05-08T23:59:50.853Z,17.20
